Nearby METAR Reports

 

KIWI - Wiscasset, Maine, USA
Distance from station: NNE 17mi, 28km
Updated: 2018-02-23 22:53
Light rain, Mist, Overcast
Light rain, Mist, Overcast
 Wind from SW
Wind: SW 6 mph , 9 km/h
Temperature: 36°F , 2°C
Wind Chill: 31°F , -1°C
Dew Point: 36°F , 2°C
Humidity: 100%
Barometer: 30.10 inHg , 1019.3 hPa
Summary: Light rain, Mist
Clouds: Overcast
Visibility: 3 miles , 5 km
Cloud details: Overcast 500 ft
2018/02/24 03:53 KIWI 240353Z AUTO 22005KT 3SM -RA BR OVC005 02/02 A3010 RMK AO2 RAE0258B52UPB50E52 SLP195 P0001 T00170017
KPWM - Portland, Maine, USA
Distance from station: WSW 24mi, 38km
Updated: 2018-02-23 22:51
Light drizzle, Mist, Overcast
Light drizzle, Mist, Overcast
 Wind from S
Wind: S 12 mph , 19 km/h
Temperature: 36°F , 2°C
Wind Chill: 28°F , -2°C
Dew Point: 34°F , 1°C
Humidity: 93%
Barometer: 30.09 inHg , 1019 hPa
Summary: Light drizzle, Mist
Clouds: Overcast
Visibility: 5 miles , 8 km
Cloud details: Mostly cloudy 900 ft
Overcast 1500 ft
2018/02/24 03:51 KPWM 240351Z 18010KT 5SM -DZ BR BKN009 OVC015 02/01 A3009 RMK AO2 DZE18B49RAB30E40 PRESFR SLP189 P0000 T00170011 $
 
KLEW - Auburn/Lewiston, Maine, USA
Distance from station: NW 30mi, 48km
Updated: 2018-02-23 22:56
Overcast
Overcast
 Wind from S
Wind: S 10 mph , 17 km/h
Temperature: 34°F , 1°C
Wind Chill: 26°F , -3°C
Dew Point: 32°F , 0°C
Humidity: 93%
Barometer: 30.05 inHg , 1017.6 hPa
Clouds: Overcast
Visibility: 10 miles , 16 km
Cloud details: Overcast 600 ft
2018/02/24 03:56 KLEW 240356Z AUTO 18009KT 10SM OVC006 01/00 A3005 RMK AO2 RAB20E32UPB32E35 PRESFR SLP192 P0000 T00060000 400061083 FZRANO
KAUG - Augusta, Maine, USA
Distance from station: N 40mi, 65km
Updated: 2018-02-23 22:53
Light rain, Overcast
Light rain, Overcast
 Wind from S
Wind: S 12 mph , 19 km/h, Gust: 18 mph , 30 km/h
Temperature: 34°F , 1°C
Wind Chill: 25°F , -4°C
Dew Point: 32°F , 0°C
Humidity: 93%
Barometer: 30.05 inHg , 1017.6 hPa
Summary: Light rain
Clouds: Overcast
Visibility: 10 miles , 16 km
Cloud details: Overcast 500 ft
2018/02/24 03:53 KAUG 240353Z AUTO 19010G16KT 10SM -RA OVC005 01/00 A3005 RMK AO2 CIG 004V010 PRESFR SLP179 P0000 T00060000
 
KRKD - Rockland/Knox, Maine, USA
Distance from station: ENE 44mi, 71km
Updated: 2018-02-23 23:24
Mist, Overcast
Mist, Overcast
 Wind from SW
Wind: SW 9 mph , 15 km/h
Temperature: 36°F , 2°C
Wind Chill: 29°F , -2°C
Dew Point: 34°F , 1°C
Humidity: 93%
Barometer: 30.06 inHg , 1017.9 hPa
Summary: Mist
Clouds: Overcast
Visibility: 6 miles , 10 km
Cloud details: Overcast 600 ft
2018/02/24 04:24 KRKD 240424Z AUTO 22008KT 6SM UP BR OVC006 02/01 A3006 RMK AO2 RAE03UPB03 CIG 004V009 P0001 FZRANO
KSFM - Sanford Muni, Maine, USA
Distance from station: WSW 50mi, 80km
Updated: 2018-02-23 22:56
Mist, Overcast
Mist, Overcast
 Wind from S
Wind: S 5 mph , 7 km/h
Temperature: 34°F , 1°C
Wind Chill: 29°F , -2°C
Dew Point: 34°F , 1°C
Humidity: 100%
Barometer: 30.08 inHg , 1018.6 hPa
Summary: Mist
Clouds: Overcast
Visibility: 6 miles , 10 km
Cloud details: Overcast 300 ft
2018/02/24 03:56 KSFM 240356Z AUTO 19004KT 6SM UP BR OVC003 01/01 A3008 RMK AO2 RAE04UPB04E26B47 SLP190 P0000 T00110006 400281094 FZRANO